Beech Creek, North Carolina
Current Conditions -  °F | °C
As of 3:15 PM on Thursday 29 Jan 2015 (Local Time) from KTNB Reporting Station
Clear Clear  
Wind Chill: 32°   Ceiling: Unl
Heat Index: 39°   Visibility: 10mi
Dew Point: 24°   Wind: 10mph
Humidity: 55%   Direction: 190°S
Pressure: 30.02"   Gusts: 22mph
Location:  36.2666°N, 81.8431°W
Report Text: KTNB 292015Z AUTO 19009G19KT 150V220 10SM CLR 04/M05 A3002 RMK AO2 T00371046
Loading
Personal Weather Stations






























Interactive Weather Map New forecast layout! Learn more

10-Day Weather Forecast

Advertisements
Track Severe Weather on mobile